createdAt,value
2019-04-06T00:00:14.040Z,97342.08
2019-04-06T00:02:41.732Z,97344.16
2019-04-06T00:05:09.249Z,97343.92
2019-04-06T00:07:36.907Z,97343.98
2019-04-06T00:10:04.568Z,97341.08
2019-04-06T00:12:32.225Z,97336.04
2019-04-06T00:14:59.791Z,97330.70
2019-04-06T00:17:27.188Z,97328.36
2019-04-06T00:19:54.501Z,97334.73
2019-04-06T00:22:22.187Z,97331.83
2019-04-06T00:24:49.838Z,97329.96
2019-04-06T00:27:17.099Z,97329.01
2019-04-06T00:29:44.213Z,97323.73
2019-04-06T00:32:37.122Z,97325.06
2019-04-06T00:35:04.479Z,97326.28
2019-04-06T00:37:31.726Z,97322.05
2019-04-06T00:39:59.036Z,97320.72
2019-04-06T00:42:26.692Z,97321.75
2019-04-06T00:44:54.058Z,97319.44
2019-04-06T00:47:21.203Z,97320.24
2019-04-06T00:49:48.605Z,97316.83
2019-04-06T00:52:15.729Z,97317.13
2019-04-06T00:54:43.250Z,97316.56
2019-04-06T00:57:10.375Z,97312.56
2019-04-06T00:59:37.563Z,97321.15
2019-04-06T01:02:05.531Z,97320.91
2019-04-06T01:04:32.793Z,97320.67
2019-04-06T01:07:00.242Z,97324.16
2019-04-06T01:09:27.643Z,97326.48
2019-04-06T01:11:55.187Z,97322.24
2019-04-06T01:14:22.233Z,97317.50
2019-04-06T01:16:49.560Z,97320.16
2019-04-06T01:19:17.537Z,97316.22
2019-04-06T01:21:45.315Z,97316.01
2019-04-06T01:24:12.680Z,97317.61
2019-04-06T01:26:40.286Z,97314.95
2019-04-06T01:29:07.947Z,97312.76
2019-04-06T01:32:25.234Z,97309.06
2019-04-06T01:35:10.854Z,97303.73
2019-04-06T01:37:37.896Z,97303.09
2019-04-06T01:40:05.214Z,97302.05
2019-04-06T01:42:32.258Z,97305.76
2019-04-06T01:44:59.452Z,97298.56
2019-04-06T01:47:26.501Z,97299.84
2019-04-06T01:49:53.546Z,97305.46
2019-04-06T01:52:20.601Z,97306.05
2019-04-06T01:54:48.144Z,97311.88
2019-04-06T01:57:15.481Z,97313.83
2019-04-06T01:59:42.902Z,97311.96
2019-04-06T02:02:15.838Z,97312.07
2019-04-06T02:04:43.430Z,97309.41
2019-04-06T02:07:10.629Z,97306.82
2019-04-06T02:09:38.720Z,97296.75
2019-04-06T02:12:06.383Z,97295.87
2019-04-06T02:14:34.189Z,97301.03
2019-04-06T02:17:01.239Z,97300.51
2019-04-06T02:19:28.277Z,97300.80
2019-04-06T02:21:55.322Z,97302.08
2019-04-06T02:24:22.637Z,97297.50
2019-04-06T02:26:49.668Z,97304.73
2019-04-06T02:29:17.373Z,97299.06
2019-04-06T02:32:08.149Z,97300.27
2019-04-06T02:34:58.028Z,97307.41
2019-04-06T02:37:44.343Z,97307.98
2019-04-06T02:40:18.396Z,97303.25
2019-04-06T02:42:52.911Z,97303.25
2019-04-06T02:45:20.349Z,97304.92
2019-04-06T02:47:47.489Z,97298.50
2019-04-06T02:50:15.330Z,97302.02
2019-04-06T02:52:42.839Z,97292.86
2019-04-06T02:55:11.795Z,97299.54
2019-04-06T02:57:38.890Z,97290.78
2019-04-06T03:00:07.016Z,97296.93
2019-04-06T03:02:34.357Z,97301.45
2019-04-06T03:05:01.702Z,97300.34
2019-04-06T03:07:29.674Z,97297.17
2019-04-06T03:09:57.032Z,97296.42
2019-04-06T03:12:24.090Z,97292.94
2019-04-06T03:14:52.252Z,97298.57
2019-04-06T03:17:19.604Z,97292.20
2019-04-06T03:19:47.270Z,97294.92
2019-04-06T03:22:14.927Z,97297.83
2019-04-06T03:24:42.281Z,97300.25
2019-04-06T03:27:10.451Z,97292.73
2019-04-06T03:29:37.658Z,97297.83
2019-04-06T03:32:04.777Z,97290.18
2019-04-06T03:34:32.810Z,97292.50
2019-04-06T03:36:59.880Z,97291.41
2019-04-06T03:39:27.542Z,97291.12
2019-04-06T03:41:55.114Z,97293.54
2019-04-06T03:44:22.441Z,97297.61
2019-04-06T03:46:49.510Z,97298.16
2019-04-06T03:49:16.533Z,97302.06
2019-04-06T03:51:43.784Z,97302.16
2019-04-06T03:54:11.763Z,97295.74
2019-04-06T03:56:39.103Z,97296.27
2019-04-06T03:59:06.215Z,97304.13
2019-04-06T04:01:33.247Z,97294.00
2019-04-06T04:04:00.543Z,97293.77
2019-04-06T04:06:27.840Z,97254.78
2019-04-06T04:08:55.684Z,97289.55
2019-04-06T04:11:22.726Z,97294.63
2019-04-06T04:13:50.389Z,97291.46
2019-04-06T04:16:18.047Z,97288.51
2019-04-06T04:18:45.822Z,97296.20
2019-04-06T04:21:12.948Z,97287.69
2019-04-06T04:23:41.883Z,97290.59
2019-04-06T04:26:09.022Z,97285.84
2019-04-06T04:28:36.038Z,97291.17
2019-04-06T04:31:03.126Z,97295.09
2019-04-06T04:33:31.056Z,97296.45
2019-04-06T04:35:58.227Z,97296.16
2019-04-06T04:38:25.988Z,97301.00
2019-04-06T04:40:53.322Z,97307.95
2019-04-06T04:43:20.382Z,97302.67
2019-04-06T04:45:47.492Z,97303.44
2019-04-06T04:48:14.585Z,97300.48
2019-04-06T04:50:41.901Z,97307.14
2019-04-06T04:53:09.271Z,97310.84
2019-04-06T04:55:36.318Z,97303.16
2019-04-06T04:58:06.368Z,97310.14
2019-04-06T05:00:33.567Z,97313.05
2019-04-06T05:03:00.598Z,97310.89
2019-04-06T05:05:27.804Z,97319.36
2019-04-06T05:07:55.408Z,97320.27
2019-04-06T05:10:22.819Z,97323.97
2019-04-06T05:12:50.284Z,97333.52
2019-04-06T05:15:36.503Z,97336.38
2019-04-06T05:18:04.049Z,97334.28
2019-04-06T05:20:31.973Z,97328.97
2019-04-06T05:22:59.840Z,97336.19
2019-04-06T05:25:27.211Z,97338.84
2019-04-06T05:27:54.533Z,97339.89
2019-04-06T05:30:21.553Z,97338.05
2019-04-06T05:32:48.554Z,97344.65
2019-04-06T05:35:15.577Z,97339.02
2019-04-06T05:37:42.593Z,97336.84
2019-04-06T05:40:09.782Z,97341.63
2019-04-06T05:42:37.774Z,97340.02
2019-04-06T05:45:06.081Z,97337.11
2019-04-06T05:47:33.688Z,97340.25
2019-04-06T05:50:00.754Z,97344.47
2019-04-06T05:52:27.761Z,97350.33
2019-04-06T05:54:55.040Z,97351.13
2019-04-06T05:57:22.697Z,97347.32
2019-04-06T05:59:50.255Z,97351.31
2019-04-06T06:02:17.653Z,97352.34
2019-04-06T06:04:45.477Z,97352.92
2019-04-06T06:07:12.637Z,97355.30
2019-04-06T06:09:39.957Z,97356.06
2019-04-06T06:12:09.336Z,97355.44
2019-04-06T06:14:37.338Z,97357.26
2019-04-06T06:17:04.597Z,97360.96
2019-04-06T06:19:31.750Z,97362.00
2019-04-06T06:21:59.521Z,97358.41
2019-04-06T06:24:26.940Z,97358.07
2019-04-06T06:26:53.995Z,97360.42
2019-04-06T06:29:21.266Z,97359.70
2019-04-06T06:31:48.302Z,97356.66
2019-04-06T06:34:15.327Z,97359.22
2019-04-06T06:36:42.532Z,97351.98
2019-04-06T06:39:09.543Z,97360.48
2019-04-06T06:41:36.574Z,97358.56
2019-04-06T06:44:04.050Z,97360.14
2019-04-06T06:46:31.137Z,97358.80
2019-04-06T06:48:59.061Z,97363.49
2019-04-06T06:51:26.293Z,97360.53
2019-04-06T06:53:53.345Z,97360.35
2019-04-06T06:56:20.714Z,97366.96
2019-04-06T06:58:47.753Z,97363.70
2019-04-06T07:01:14.985Z,97364.30
2019-04-06T07:03:42.541Z,97367.47
2019-04-06T07:06:09.590Z,97367.59
2019-04-06T07:08:36.988Z,97367.87
2019-04-06T07:11:05.566Z,97367.28
2019-04-06T07:13:32.602Z,97372.73
2019-04-06T07:15:59.611Z,97372.13
2019-04-06T07:18:26.620Z,97366.50
2019-04-06T07:20:53.766Z,97373.91
2019-04-06T07:23:21.504Z,97371.75
2019-04-06T07:25:57.334Z,97366.92
2019-04-06T07:28:18.053Z,97372.14
2019-04-06T07:30:46.288Z,97372.41
2019-04-06T07:33:13.305Z,97363.02
2019-04-06T07:35:40.331Z,97358.95
2019-04-06T07:38:07.414Z,97363.76
2019-04-06T07:40:34.598Z,97364.50
2019-04-06T07:43:02.175Z,97365.54
2019-04-06T07:45:29.182Z,97367.34
2019-04-06T07:47:56.185Z,97355.84
2019-04-06T07:50:23.179Z,97357.92
2019-04-06T07:52:50.202Z,97361.33
2019-04-06T07:55:17.335Z,97358.30
2019-04-06T07:57:44.835Z,97357.15
2019-04-06T08:00:12.061Z,97358.39
2019-04-06T08:02:39.630Z,97365.00
2019-04-06T08:05:08.364Z,97349.49
2019-04-06T08:07:35.590Z,97345.12
2019-04-06T08:10:02.958Z,97346.97
2019-04-06T08:12:29.976Z,97343.67
2019-04-06T08:14:57.533Z,97344.41
2019-04-06T08:17:24.669Z,97344.11
2019-04-06T08:19:51.925Z,97338.97
2019-04-06T08:22:19.835Z,97344.78
2019-04-06T08:24:47.101Z,97338.80
2019-04-06T08:27:14.753Z,97338.54
2019-04-06T08:29:42.006Z,97336.38
2019-04-06T08:32:09.356Z,97340.58
2019-04-06T08:34:37.024Z,97338.34
2019-04-06T08:37:04.497Z,97336.97
2019-04-06T08:39:31.827Z,97338.77
2019-04-06T08:41:59.844Z,97336.00
2019-04-06T08:44:26.929Z,97337.80
2019-04-06T08:46:53.932Z,97335.56
2019-04-06T08:49:20.945Z,97334.16
2019-04-06T08:51:48.321Z,97332.05
2019-04-06T08:54:15.598Z,97329.31
2019-04-06T08:56:42.906Z,97329.25
2019-04-06T08:59:12.170Z,97330.55
2019-04-06T09:01:39.416Z,97325.67
2019-04-06T09:04:06.514Z,97328.57
2019-04-06T09:06:33.585Z,97322.47
2019-04-06T09:09:00.980Z,97319.72
2019-04-06T09:11:28.718Z,97315.64
2019-04-06T09:13:56.029Z,97316.94
2019-04-06T09:16:23.676Z,97318.74
2019-04-06T09:18:51.124Z,97314.44
2019-04-06T09:21:18.640Z,97313.52
2019-04-06T09:23:46.261Z,97310.01
2019-04-06T09:26:13.402Z,97311.58
2019-04-06T09:28:40.575Z,97312.30
2019-04-06T09:31:07.720Z,97313.27
2019-04-06T09:33:35.479Z,97309.25
2019-04-06T09:36:02.692Z,97306.20
2019-04-06T09:38:29.835Z,97304.75
2019-04-06T09:40:57.385Z,97306.05
2019-04-06T09:43:24.849Z,97302.98
2019-04-06T09:46:20.739Z,97300.58
2019-04-06T09:49:00.296Z,97298.27
2019-04-06T09:51:44.865Z,97292.48
2019-04-06T09:54:23.933Z,97286.35
2019-04-06T09:57:18.199Z,97280.70
2019-04-06T09:59:53.857Z,97270.63
2019-04-06T10:02:39.516Z,97265.63
2019-04-06T10:05:35.682Z,97260.95
2019-04-06T10:08:21.425Z,97257.40
2019-04-06T10:11:11.524Z,97247.63
2019-04-06T10:14:10.517Z,97244.81
2019-04-06T10:16:58.460Z,97236.56
2019-04-06T10:19:33.404Z,97239.20
2019-04-06T10:22:17.747Z,97233.53
2019-04-06T10:25:07.728Z,97241.64
2019-04-06T10:27:55.256Z,97242.19
2019-04-06T10:30:45.170Z,97239.47
2019-04-06T10:33:31.850Z,97234.69
2019-04-06T10:36:14.264Z,97232.53
2019-04-06T10:39:01.168Z,97233.02
2019-04-06T10:41:47.992Z,97223.17
2019-04-06T10:44:22.207Z,97218.22
2019-04-06T10:46:54.678Z,97215.06
2019-04-06T10:49:40.248Z,97216.09
2019-04-06T10:52:26.997Z,97207.27
2019-04-06T10:55:06.628Z,97205.40
2019-04-06T10:57:44.108Z,97207.45
2019-04-06T11:00:29.438Z,97199.03
2019-04-06T11:03:14.904Z,97194.20
2019-04-06T11:05:51.712Z,97194.51
2019-04-06T11:08:32.295Z,97193.66
2019-04-06T11:11:17.929Z,97189.55
2019-04-06T11:14:09.102Z,97194.50
2019-04-06T11:16:48.309Z,97192.13
2019-04-06T11:19:33.679Z,97191.50
2019-04-06T11:22:26.459Z,97190.73
2019-04-06T11:25:09.240Z,97190.41
2019-04-06T11:27:48.388Z,97181.00
2019-04-06T11:30:24.665Z,97187.06
2019-04-06T11:33:13.967Z,97189.14
2019-04-06T11:36:00.699Z,97189.75
2019-04-06T11:38:39.141Z,97186.95
2019-04-06T11:41:21.389Z,97183.95
2019-04-06T11:44:07.324Z,97184.36
2019-04-06T11:47:00.278Z,97185.16
2019-04-06T11:49:36.209Z,97187.22
2019-04-06T11:52:11.926Z,97184.86
2019-04-06T11:54:59.370Z,97188.66
2019-04-06T11:57:38.481Z,97190.41
2019-04-06T12:00:27.546Z,97196.14
2019-04-06T12:03:17.287Z,97186.60
2019-04-06T12:06:07.580Z,97190.36
2019-04-06T12:08:53.080Z,97190.08
2019-04-06T12:11:44.072Z,97192.62
2019-04-06T12:14:39.815Z,97191.48
2019-04-06T12:17:25.261Z,97189.15
2019-04-06T12:20:12.782Z,97186.86
2019-04-06T12:22:54.802Z,97187.55
2019-04-06T12:25:50.513Z,97178.66
2019-04-06T12:28:28.901Z,97181.66
2019-04-06T12:31:18.969Z,97179.42
2019-04-06T12:34:12.677Z,97183.98
2019-04-06T12:36:49.139Z,97186.17
2019-04-06T12:39:36.547Z,97184.70
2019-04-06T12:42:23.282Z,97181.33
2019-04-06T12:45:09.248Z,97183.46
2019-04-06T12:47:56.289Z,97182.16
2019-04-06T12:50:49.581Z,97186.27
2019-04-06T12:53:30.426Z,97176.67
2019-04-06T12:56:13.760Z,97178.42
2019-04-06T12:59:04.114Z,97177.20
2019-04-06T13:01:51.331Z,97176.89
2019-04-06T13:04:47.467Z,97176.80
2019-04-06T13:07:31.403Z,97172.41
2019-04-06T13:10:11.993Z,97163.28
2019-04-06T13:12:56.206Z,97155.98
2019-04-06T13:15:38.142Z,97152.03
2019-04-06T13:18:33.738Z,97149.63
2019-04-06T13:21:31.123Z,97150.67
2019-04-06T13:24:06.050Z,97138.55
2019-04-06T13:26:45.406Z,97140.06
2019-04-06T13:29:21.311Z,97137.23
2019-04-06T13:32:15.081Z,97132.27
2019-04-06T13:34:55.059Z,97136.77
2019-04-06T13:37:51.432Z,97127.84
2019-04-06T13:40:31.056Z,97126.13
2019-04-06T13:43:12.937Z,97130.52
2019-04-06T13:46:06.042Z,97125.34
2019-04-06T13:48:54.363Z,97131.87
2019-04-06T13:51:42.752Z,97123.45
2019-04-06T13:54:27.909Z,97117.33
2019-04-06T13:57:21.404Z,97110.63
2019-04-06T14:00:08.761Z,97115.46
2019-04-06T14:02:55.238Z,97114.44
2019-04-06T14:05:28.466Z,97113.30
2019-04-06T14:08:15.323Z,97112.60
2019-04-06T14:11:02.286Z,97111.20
2019-04-06T14:13:35.663Z,97114.52
2019-04-06T14:16:11.451Z,97110.12
2019-04-06T14:19:00.952Z,97114.45
2019-04-06T14:21:53.443Z,97118.09
2019-04-06T14:24:46.450Z,97106.84
2019-04-06T14:27:19.647Z,97112.45
2019-04-06T14:30:10.218Z,97110.42
2019-04-06T14:32:53.004Z,97109.23
2019-04-06T14:35:40.584Z,97109.14
2019-04-06T14:38:39.871Z,97112.47
2019-04-06T14:41:25.338Z,97104.69
2019-04-06T14:44:18.066Z,97098.37
2019-04-06T14:46:59.553Z,97107.04
2019-04-06T14:49:55.430Z,97107.48
2019-04-06T14:52:31.387Z,97109.78
2019-04-06T14:55:27.760Z,97108.95
2019-04-06T14:58:03.939Z,97104.50
2019-04-06T15:00:43.042Z,97094.36
2019-04-06T15:03:26.228Z,97086.35
2019-04-06T15:06:16.291Z,97079.48
2019-04-06T15:09:02.289Z,97081.84
2019-04-06T15:11:47.830Z,97081.96
2019-04-06T15:14:26.640Z,97085.91
2019-04-06T15:16:59.209Z,97084.00
2019-04-06T15:19:36.706Z,97083.03
2019-04-06T15:22:22.409Z,97079.23
2019-04-06T15:25:07.122Z,97076.11
2019-04-06T15:28:06.419Z,97077.67
2019-04-06T15:31:08.496Z,97071.61
2019-04-06T15:33:45.002Z,97071.24
2019-04-06T15:36:38.519Z,97063.45
2019-04-06T15:39:25.017Z,97061.64
2019-04-06T15:42:11.137Z,97055.69
2019-04-06T15:44:54.137Z,97053.16
2019-04-06T15:47:34.809Z,97053.48
2019-04-06T15:50:17.651Z,97049.88
2019-04-06T15:53:13.874Z,97047.33
2019-04-06T15:56:01.460Z,97048.39
2019-04-06T15:58:51.565Z,97049.22
2019-04-06T16:02:00.176Z,97052.61
2019-04-06T16:04:41.361Z,97050.84
2019-04-06T16:07:33.546Z,97043.61
2019-04-06T16:10:21.456Z,97042.47
2019-04-06T16:13:10.524Z,97047.66
2019-04-06T16:15:45.302Z,97046.95
2019-04-06T16:18:50.809Z,97047.36
2019-04-06T16:21:29.411Z,97048.47
2019-04-06T16:24:13.224Z,97055.22
2019-04-06T16:26:59.009Z,97044.30
2019-04-06T16:29:35.500Z,97041.17
2019-04-06T16:32:33.259Z,97043.34
2019-04-06T16:35:30.951Z,97040.92
2019-04-06T16:38:10.163Z,97038.50
2019-04-06T16:40:49.682Z,97036.65
2019-04-06T16:43:32.376Z,97040.66
2019-04-06T16:46:25.347Z,97039.33
2019-04-06T16:49:11.044Z,97037.77
2019-04-06T16:51:48.247Z,97034.61
2019-04-06T16:54:27.237Z,97031.70
2019-04-06T16:57:00.953Z,97031.93
2019-04-06T16:59:45.198Z,97034.83
2019-04-06T17:02:26.005Z,97032.16
2019-04-06T17:05:14.745Z,97040.27
2019-04-06T17:07:48.836Z,97038.14
2019-04-06T17:10:26.882Z,97029.44
2019-04-06T17:13:02.823Z,97033.20
2019-04-06T17:15:37.625Z,97035.42
2019-04-06T17:18:12.270Z,97036.28
2019-04-06T17:21:00.036Z,97039.81
2019-04-06T17:23:59.625Z,97035.34
2019-04-06T17:26:38.872Z,97035.75
2019-04-06T17:29:29.079Z,97031.58
2019-04-06T17:32:15.408Z,97034.88
2019-04-06T17:35:01.381Z,97034.74
2019-04-06T17:37:34.605Z,97040.94
2019-04-06T17:40:14.130Z,97044.88
2019-04-06T17:42:47.675Z,97045.98
2019-04-06T17:45:36.088Z,97039.92
2019-04-06T17:48:26.164Z,97047.72
2019-04-06T17:51:33.030Z,97046.75
2019-04-06T17:54:12.288Z,97051.64
2019-04-06T17:57:14.648Z,97050.70
2019-04-06T18:00:01.904Z,97046.22
2019-04-06T18:02:48.766Z,97050.84
2019-04-06T18:05:28.266Z,97052.58
2019-04-06T18:08:06.941Z,97054.45
2019-04-06T18:10:53.482Z,97056.19
2019-04-06T18:13:41.215Z,97053.83
2019-04-06T18:16:09.001Z,97056.86
2019-04-06T18:18:36.415Z,97064.96
2019-04-06T18:21:03.867Z,97069.52
2019-04-06T18:23:31.265Z,97070.36
2019-04-06T18:25:58.335Z,97072.27
2019-04-06T18:28:25.384Z,97068.31
2019-04-06T18:31:02.694Z,97073.42
2019-04-06T18:33:29.977Z,97078.77
2019-04-06T18:35:57.358Z,97080.64
2019-04-06T18:38:36.544Z,97076.97
2019-04-06T18:41:04.122Z,97084.50
2019-04-06T18:43:31.906Z,97091.72
2019-04-06T18:45:59.398Z,97092.91
2019-04-06T18:48:26.427Z,97092.64
2019-04-06T18:50:53.443Z,97097.76
2019-04-06T18:53:20.813Z,97098.15
2019-04-06T18:55:48.203Z,97100.02
2019-04-06T18:58:15.562Z,97088.31
2019-04-06T19:00:43.558Z,97097.43
2019-04-06T19:03:17.407Z,97100.95
2019-04-06T19:05:40.559Z,97101.02
2019-04-06T19:08:08.421Z,97100.23
2019-04-06T19:10:36.447Z,97101.10
2019-04-06T19:13:04.412Z,97108.23
2019-04-06T19:15:32.561Z,97115.25
2019-04-06T19:17:59.924Z,97109.34
2019-04-06T19:20:26.950Z,97107.55
2019-04-06T19:22:54.591Z,97111.30
2019-04-06T19:25:21.877Z,97116.09
2019-04-06T19:27:49.702Z,97115.91
2019-04-06T19:30:16.842Z,97115.69
2019-04-06T19:32:43.955Z,97120.00
2019-04-06T19:35:11.047Z,97119.77
2019-04-06T19:37:38.538Z,97117.64
2019-04-06T19:40:06.023Z,97119.54
2019-04-06T19:42:33.553Z,97119.54
2019-04-06T19:45:00.562Z,97114.81
2019-04-06T19:47:27.940Z,97119.35
2019-04-06T19:49:55.209Z,97112.91
2019-04-06T19:52:22.224Z,97115.42
2019-04-06T19:54:50.126Z,97109.28
2019-04-06T19:57:18.359Z,97104.33
2019-04-06T19:59:45.770Z,97109.10
2019-04-06T20:02:13.100Z,97108.64
2019-04-06T20:04:40.994Z,97103.30
2019-04-06T20:07:10.732Z,97101.17
2019-04-06T20:09:37.292Z,97101.25
2019-04-06T20:12:07.479Z,97102.39
2019-04-06T20:14:33.287Z,97097.06
2019-04-06T20:17:00.371Z,97101.86
2019-04-06T20:19:27.338Z,97099.50
2019-04-06T20:21:54.339Z,97102.01
2019-04-06T20:24:21.775Z,97106.55
2019-04-06T20:26:49.396Z,97102.31
2019-04-06T20:29:17.394Z,97102.78
2019-04-06T20:31:44.704Z,97102.31
2019-04-06T20:34:12.086Z,97100.23
2019-04-06T20:36:39.622Z,97096.53
2019-04-06T20:39:07.848Z,97098.89
2019-04-06T20:41:34.856Z,97102.41
2019-04-06T20:44:01.868Z,97101.14
2019-04-06T20:46:29.762Z,97090.77
2019-04-06T20:48:56.960Z,97101.75
2019-04-06T20:51:23.969Z,97106.78
2019-04-06T20:53:51.347Z,97100.42
2019-04-06T20:56:18.362Z,97096.11
2019-04-06T20:58:45.953Z,97097.03
2019-04-06T21:01:13.076Z,97100.00
2019-04-06T21:03:40.462Z,97100.00
2019-04-06T21:06:07.885Z,97100.38
2019-04-06T21:08:35.399Z,97101.71
2019-04-06T21:11:03.575Z,97103.58
2019-04-06T21:13:30.670Z,97100.14
2019-04-06T21:15:57.796Z,97102.55
2019-04-06T21:18:25.304Z,97102.09
2019-04-06T21:20:53.328Z,97102.02
2019-04-06T21:23:20.718Z,97098.70
2019-04-06T21:25:48.154Z,97104.50
2019-04-06T21:28:15.523Z,97105.36
2019-04-06T21:30:43.217Z,97102.44
2019-04-06T21:33:10.699Z,97100.56
2019-04-06T21:35:38.101Z,97102.73
2019-04-06T21:38:05.745Z,97101.67
2019-04-06T21:40:33.067Z,97102.73
2019-04-06T21:43:01.008Z,97097.73
2019-04-06T21:45:29.143Z,97101.73
2019-04-06T21:47:56.192Z,97101.17
2019-04-06T21:50:23.225Z,97106.51
2019-04-06T21:52:50.838Z,97103.91
2019-04-06T21:55:17.988Z,97110.66
2019-04-06T21:57:45.781Z,97110.39
2019-04-06T22:00:18.384Z,97109.92
2019-04-06T22:02:45.937Z,97106.16
2019-04-06T22:05:13.740Z,97113.36
2019-04-06T22:07:48.633Z,97113.63
2019-04-06T22:10:10.656Z,97109.92
2019-04-06T22:12:37.841Z,97112.41
2019-04-06T22:15:05.910Z,97107.26
2019-04-06T22:17:34.839Z,97111.00
2019-04-06T22:20:02.145Z,97111.06
2019-04-06T22:22:29.587Z,97113.20
2019-04-06T22:24:57.612Z,97108.17
2019-04-06T22:27:25.076Z,97111.06
2019-04-06T22:29:52.263Z,97106.11
2019-04-06T22:32:20.838Z,97105.27
2019-04-06T22:34:48.698Z,97104.27
2019-04-06T22:37:16.273Z,97110.71
2019-04-06T22:39:43.680Z,97107.02
2019-04-06T22:42:11.476Z,97101.14
2019-04-06T22:44:38.687Z,97101.52
2019-04-06T22:47:05.943Z,97101.75
2019-04-06T22:49:32.987Z,97107.92
2019-04-06T22:52:00.018Z,97105.75
2019-04-06T22:54:27.744Z,97105.75
2019-04-06T22:56:55.812Z,97100.79
2019-04-06T22:59:24.339Z,97105.09
2019-04-06T23:01:51.775Z,97110.13
2019-04-06T23:04:32.494Z,97107.56
2019-04-06T23:07:02.951Z,97109.09
2019-04-06T23:09:30.877Z,97111.03
2019-04-06T23:11:58.765Z,97106.73
2019-04-06T23:14:27.294Z,97114.06
2019-04-06T23:16:54.480Z,97112.73
2019-04-06T23:19:21.528Z,97106.36
2019-04-06T23:21:48.862Z,97105.07
2019-04-06T23:24:16.065Z,97105.33
2019-04-06T23:26:43.409Z,97100.84
2019-04-06T23:29:11.190Z,97098.70
2019-04-06T23:31:38.383Z,97098.41
2019-04-06T23:34:05.446Z,97103.73
2019-04-06T23:36:33.034Z,97102.23
2019-04-06T23:39:00.185Z,97108.14
2019-04-06T23:41:27.684Z,97114.17
2019-04-06T23:43:55.003Z,97109.97
2019-04-06T23:46:22.364Z,97105.24
2019-04-06T23:48:49.901Z,97111.34
2019-04-06T23:51:17.436Z,97109.23
2019-04-06T23:53:44.881Z,97109.23
2019-04-06T23:56:12.776Z,97111.11
2019-04-06T23:58:40.134Z,97112.14
